sensor_id;sensor_type;location;lat;lon;timestamp;P1;durP1;ratioP1;P2;durP2;ratioP2
69623;SDS011;56843;52.020;5.670;2023-07-20T00:00:07;7.30;;;2.60;;
69623;SDS011;56843;52.020;5.670;2023-07-20T00:01:43;7.32;;;2.90;;
69623;SDS011;56843;52.020;5.670;2023-07-20T00:03:14;8.25;;;3.00;;
69623;SDS011;56843;52.020;5.670;2023-07-20T00:04:49;8.57;;;3.00;;
69623;SDS011;56843;52.020;5.670;2023-07-20T00:06:19;9.23;;;3.00;;
69623;SDS011;56843;52.020;5.670;2023-07-20T00:07:50;10.32;;;3.13;;
69623;SDS011;56843;52.020;5.670;2023-07-20T00:09:22;7.47;;;3.00;;
69623;SDS011;56843;52.020;5.670;2023-07-20T00:10:52;6.27;;;2.80;;
69623;SDS011;56843;52.020;5.670;2023-07-20T00:12:23;8.15;;;2.83;;
69623;SDS011;56843;52.020;5.670;2023-07-20T00:13:53;8.67;;;2.77;;
69623;SDS011;56843;52.020;5.670;2023-07-20T00:15:24;9.97;;;3.20;;
69623;SDS011;56843;52.020;5.670;2023-07-20T00:16:55;7.93;;;3.00;;
69623;SDS011;56843;52.020;5.670;2023-07-20T00:18:26;6.95;;;2.80;;
69623;SDS011;56843;52.020;5.670;2023-07-20T00:19:56;7.00;;;2.63;;
69623;SDS011;56843;52.020;5.670;2023-07-20T00:21:27;7.03;;;2.93;;
69623;SDS011;56843;52.020;5.670;2023-07-20T00:22:57;5.83;;;2.50;;
69623;SDS011;56843;52.020;5.670;2023-07-20T00:24:28;7.00;;;2.67;;
69623;SDS011;56843;52.020;5.670;2023-07-20T00:25:59;9.87;;;2.77;;
69623;SDS011;56843;52.020;5.670;2023-07-20T00:27:29;7.22;;;2.65;;
69623;SDS011;56843;52.020;5.670;2023-07-20T00:29:00;7.15;;;2.40;;
69623;SDS011;56843;52.020;5.670;2023-07-20T00:30:30;6.83;;;2.47;;
69623;SDS011;56843;52.020;5.670;2023-07-20T00:32:01;7.27;;;2.70;;
69623;SDS011;56843;52.020;5.670;2023-07-20T00:33:31;6.97;;;2.63;;
69623;SDS011;56843;52.020;5.670;2023-07-20T00:35:03;7.05;;;2.65;;
69623;SDS011;56843;52.020;5.670;2023-07-20T00:36:33;7.80;;;2.30;;
69623;SDS011;56843;52.020;5.670;2023-07-20T00:38:06;5.65;;;1.90;;
69623;SDS011;56843;52.020;5.670;2023-07-20T00:39:36;7.32;;;2.08;;
69623;SDS011;56843;52.020;5.670;2023-07-20T00:41:06;7.53;;;2.33;;
69623;SDS011;56843;52.020;5.670;2023-07-20T00:42:38;9.32;;;2.35;;
69623;SDS011;56843;52.020;5.670;2023-07-20T00:44:09;6.72;;;1.90;;
69623;SDS011;56843;52.020;5.670;2023-07-20T00:45:40;7.60;;;2.17;;
69623;SDS011;56843;52.020;5.670;2023-07-20T00:47:10;6.47;;;1.60;;
69623;SDS011;56843;52.020;5.670;2023-07-20T00:48:41;5.70;;;2.00;;
69623;SDS011;56843;52.020;5.670;2023-07-20T00:50:13;5.43;;;1.80;;
69623;SDS011;56843;52.020;5.670;2023-07-20T00:51:43;5.95;;;1.70;;
69623;SDS011;56843;52.020;5.670;2023-07-20T00:53:14;6.60;;;1.70;;
69623;SDS011;56843;52.020;5.670;2023-07-20T00:54:45;4.95;;;1.83;;
69623;SDS011;56843;52.020;5.670;2023-07-20T00:56:16;4.68;;;1.80;;
69623;SDS011;56843;52.020;5.670;2023-07-20T00:57:46;6.30;;;2.00;;
69623;SDS011;56843;52.020;5.670;2023-07-20T00:59:17;5.57;;;1.70;;
69623;SDS011;56843;52.020;5.670;2023-07-20T01:03:23;5.60;;;1.85;;
69623;SDS011;56843;52.020;5.670;2023-07-20T01:04:54;4.20;;;1.67;;
69623;SDS011;56843;52.020;5.670;2023-07-20T01:06:28;5.33;;;2.10;;
69623;SDS011;56843;52.020;5.670;2023-07-20T01:08:29;6.00;;;2.08;;
69623;SDS011;56843;52.020;5.670;2023-07-20T01:10:41;5.03;;;1.90;;
69623;SDS011;56843;52.020;5.670;2023-07-20T01:12:12;5.03;;;1.67;;
69623;SDS011;56843;52.020;5.670;2023-07-20T01:13:48;4.97;;;1.83;;
69623;SDS011;56843;52.020;5.670;2023-07-20T01:15:20;4.35;;;1.60;;
69623;SDS011;56843;52.020;5.670;2023-07-20T01:16:51;4.50;;;1.60;;
69623;SDS011;56843;52.020;5.670;2023-07-20T01:18:24;4.43;;;1.65;;
69623;SDS011;56843;52.020;5.670;2023-07-20T01:19:55;5.70;;;1.70;;
69623;SDS011;56843;52.020;5.670;2023-07-20T01:21:28;5.10;;;1.70;;
69623;SDS011;56843;52.020;5.670;2023-07-20T01:23:23;4.68;;;1.48;;
69623;SDS011;56843;52.020;5.670;2023-07-20T01:25:07;4.45;;;1.30;;
69623;SDS011;56843;52.020;5.670;2023-07-20T01:32:42;3.42;;;1.30;;
69623;SDS011;56843;52.020;5.670;2023-07-20T01:34:15;3.50;;;1.30;;
69623;SDS011;56843;52.020;5.670;2023-07-20T01:35:52;3.37;;;1.30;;
69623;SDS011;56843;52.020;5.670;2023-07-20T01:37:25;4.33;;;1.13;;
69623;SDS011;56843;52.020;5.670;2023-07-20T01:38:59;2.63;;;1.05;;
69623;SDS011;56843;52.020;5.670;2023-07-20T01:40:31;3.08;;;1.00;;
69623;SDS011;56843;52.020;5.670;2023-07-20T01:42:02;4.53;;;1.10;;
69623;SDS011;56843;52.020;5.670;2023-07-20T01:43:33;2.85;;;1.10;;
69623;SDS011;56843;52.020;5.670;2023-07-20T01:45:04;3.28;;;1.10;;
69623;SDS011;56843;52.020;5.670;2023-07-20T01:46:35;4.20;;;1.10;;
69623;SDS011;56843;52.020;5.670;2023-07-20T01:48:05;3.17;;;1.20;;
69623;SDS011;56843;52.020;5.670;2023-07-20T01:49:36;3.10;;;1.20;;
69623;SDS011;56843;52.020;5.670;2023-07-20T01:51:06;2.90;;;1.07;;
69623;SDS011;56843;52.020;5.670;2023-07-20T01:52:37;4.77;;;1.30;;
69623;SDS011;56843;52.020;5.670;2023-07-20T01:54:07;3.03;;;0.98;;
69623;SDS011;56843;52.020;5.670;2023-07-20T01:55:38;2.90;;;1.03;;
69623;SDS011;56843;52.020;5.670;2023-07-20T01:57:08;2.80;;;1.00;;
69623;SDS011;56843;52.020;5.670;2023-07-20T01:58:39;3.23;;;0.97;;
69623;SDS011;56843;52.020;5.670;2023-07-20T02:00:09;3.55;;;1.13;;
69623;SDS011;56843;52.020;5.670;2023-07-20T02:01:44;2.85;;;1.00;;
69623;SDS011;56843;52.020;5.670;2023-07-20T02:03:15;3.72;;;0.80;;
69623;SDS011;56843;52.020;5.670;2023-07-20T02:04:46;3.67;;;1.03;;
69623;SDS011;56843;52.020;5.670;2023-07-20T02:06:18;3.42;;;1.00;;
69623;SDS011;56843;52.020;5.670;2023-07-20T02:07:48;2.63;;;0.90;;
69623;SDS011;56843;52.020;5.670;2023-07-20T02:09:23;4.13;;;1.17;;
69623;SDS011;56843;52.020;5.670;2023-07-20T02:10:54;3.07;;;1.03;;
69623;SDS011;56843;52.020;5.670;2023-07-20T02:12:24;2.85;;;1.10;;
69623;SDS011;56843;52.020;5.670;2023-07-20T02:13:54;2.93;;;0.90;;
69623;SDS011;56843;52.020;5.670;2023-07-20T02:15:26;3.50;;;1.23;;
69623;SDS011;56843;52.020;5.670;2023-07-20T02:16:57;4.10;;;1.50;;
69623;SDS011;56843;52.020;5.670;2023-07-20T02:18:32;4.23;;;1.17;;
69623;SDS011;56843;52.020;5.670;2023-07-20T02:20:03;3.70;;;1.20;;
69623;SDS011;56843;52.020;5.670;2023-07-20T02:21:34;3.22;;;1.17;;
69623;SDS011;56843;52.020;5.670;2023-07-20T02:23:04;4.63;;;1.30;;
69623;SDS011;56843;52.020;5.670;2023-07-20T02:24:35;3.50;;;1.27;;
69623;SDS011;56843;52.020;5.670;2023-07-20T02:26:05;3.92;;;1.40;;
69623;SDS011;56843;52.020;5.670;2023-07-20T02:27:36;3.75;;;1.40;;
69623;SDS011;56843;52.020;5.670;2023-07-20T02:29:07;3.47;;;1.50;;
69623;SDS011;56843;52.020;5.670;2023-07-20T02:30:38;3.57;;;1.27;;
69623;SDS011;56843;52.020;5.670;2023-07-20T02:32:09;4.65;;;1.40;;
69623;SDS011;56843;52.020;5.670;2023-07-20T02:33:41;3.83;;;1.50;;
69623;SDS011;56843;52.020;5.670;2023-07-20T02:35:11;5.20;;;1.23;;
69623;SDS011;56843;52.020;5.670;2023-07-20T02:36:43;4.45;;;1.27;;
69623;SDS011;56843;52.020;5.670;2023-07-20T02:38:13;6.77;;;1.50;;
69623;SDS011;56843;52.020;5.670;2023-07-20T02:39:44;3.08;;;1.00;;
69623;SDS011;56843;52.020;5.670;2023-07-20T02:41:15;3.10;;;1.20;;
69623;SDS011;56843;52.020;5.670;2023-07-20T02:42:46;4.10;;;1.40;;
69623;SDS011;56843;52.020;5.670;2023-07-20T02:44:16;4.30;;;1.03;;
69623;SDS011;56843;52.020;5.670;2023-07-20T02:45:47;3.37;;;1.23;;
69623;SDS011;56843;52.020;5.670;2023-07-20T02:47:18;4.20;;;1.60;;
69623;SDS011;56843;52.020;5.670;2023-07-20T02:48:49;4.10;;;1.40;;
69623;SDS011;56843;52.020;5.670;2023-07-20T02:50:19;3.83;;;1.50;;
69623;SDS011;56843;52.020;5.670;2023-07-20T02:51:50;4.87;;;1.27;;
69623;SDS011;56843;52.020;5.670;2023-07-20T02:53:20;3.43;;;1.23;;
69623;SDS011;56843;52.020;5.670;2023-07-20T02:54:51;4.47;;;1.30;;
69623;SDS011;56843;52.020;5.670;2023-07-20T02:56:21;4.20;;;1.33;;
69623;SDS011;56843;52.020;5.670;2023-07-20T02:57:53;3.60;;;1.43;;
69623;SDS011;56843;52.020;5.670;2023-07-20T02:59:23;2.90;;;1.00;;
69623;SDS011;56843;52.020;5.670;2023-07-20T03:00:54;3.10;;;1.23;;
69623;SDS011;56843;52.020;5.670;2023-07-20T03:02:24;5.43;;;1.50;;
69623;SDS011;56843;52.020;5.670;2023-07-20T03:03:55;3.78;;;1.40;;
69623;SDS011;56843;52.020;5.670;2023-07-20T03:05:26;3.97;;;1.60;;
69623;SDS011;56843;52.020;5.670;2023-07-20T03:06:58;3.95;;;1.30;;
69623;SDS011;56843;52.020;5.670;2023-07-20T03:08:30;3.33;;;1.30;;
69623;SDS011;56843;52.020;5.670;2023-07-20T03:10:00;3.92;;;1.50;;
69623;SDS011;56843;52.020;5.670;2023-07-20T03:11:31;3.10;;;1.25;;
69623;SDS011;56843;52.020;5.670;2023-07-20T03:13:02;3.50;;;1.30;;
69623;SDS011;56843;52.020;5.670;2023-07-20T03:14:33;4.10;;;1.40;;
69623;SDS011;56843;52.020;5.670;2023-07-20T03:16:03;5.43;;;1.57;;
69623;SDS011;56843;52.020;5.670;2023-07-20T03:17:34;3.22;;;1.17;;
69623;SDS011;56843;52.020;5.670;2023-07-20T03:19:05;3.13;;;1.27;;
69623;SDS011;56843;52.020;5.670;2023-07-20T03:20:36;3.33;;;1.20;;
69623;SDS011;56843;52.020;5.670;2023-07-20T03:22:07;2.83;;;0.93;;
69623;SDS011;56843;52.020;5.670;2023-07-20T03:23:38;5.50;;;1.57;;
69623;SDS011;56843;52.020;5.670;2023-07-20T03:25:09;5.10;;;1.20;;
69623;SDS011;56843;52.020;5.670;2023-07-20T03:26:40;3.25;;;1.13;;
69623;SDS011;56843;52.020;5.670;2023-07-20T03:28:11;3.55;;;1.00;;
69623;SDS011;56843;52.020;5.670;2023-07-20T03:29:42;4.57;;;1.27;;
69623;SDS011;56843;52.020;5.670;2023-07-20T03:31:14;2.55;;;0.90;;
69623;SDS011;56843;52.020;5.670;2023-07-20T03:32:45;3.28;;;1.08;;
69623;SDS011;56843;52.020;5.670;2023-07-20T03:34:16;4.32;;;1.00;;
69623;SDS011;56843;52.020;5.670;2023-07-20T03:35:46;4.40;;;1.40;;
69623;SDS011;56843;52.020;5.670;2023-07-20T03:37:17;3.10;;;1.10;;
69623;SDS011;56843;52.020;5.670;2023-07-20T03:38:47;3.70;;;1.30;;
69623;SDS011;56843;52.020;5.670;2023-07-20T03:40:18;3.08;;;1.05;;
69623;SDS011;56843;52.020;5.670;2023-07-20T03:41:48;3.67;;;1.20;;
69623;SDS011;56843;52.020;5.670;2023-07-20T03:43:19;4.57;;;1.20;;
69623;SDS011;56843;52.020;5.670;2023-07-20T03:44:51;3.30;;;1.17;;
69623;SDS011;56843;52.020;5.670;2023-07-20T03:46:21;2.72;;;1.00;;
69623;SDS011;56843;52.020;5.670;2023-07-20T03:47:52;3.65;;;1.20;;
69623;SDS011;56843;52.020;5.670;2023-07-20T03:49:22;3.07;;;1.00;;
69623;SDS011;56843;52.020;5.670;2023-07-20T03:50:53;4.77;;;1.40;;
69623;SDS011;56843;52.020;5.670;2023-07-20T03:52:24;4.38;;;1.27;;
69623;SDS011;56843;52.020;5.670;2023-07-20T03:53:54;3.20;;;1.20;;
69623;SDS011;56843;52.020;5.670;2023-07-20T03:55:25;3.60;;;1.40;;
69623;SDS011;56843;52.020;5.670;2023-07-20T03:56:55;3.17;;;1.30;;
69623;SDS011;56843;52.020;5.670;2023-07-20T03:58:26;3.92;;;1.30;;
69623;SDS011;56843;52.020;5.670;2023-07-20T03:59:56;3.53;;;1.40;;
69623;SDS011;56843;52.020;5.670;2023-07-20T04:01:27;3.50;;;1.30;;
69623;SDS011;56843;52.020;5.670;2023-07-20T04:02:57;3.90;;;1.30;;
69623;SDS011;56843;52.020;5.670;2023-07-20T04:04:29;3.88;;;1.42;;
69623;SDS011;56843;52.020;5.670;2023-07-20T04:05:59;4.77;;;1.30;;
69623;SDS011;56843;52.020;5.670;2023-07-20T04:07:30;4.10;;;1.50;;
69623;SDS011;56843;52.020;5.670;2023-07-20T04:09:01;5.30;;;1.70;;
69623;SDS011;56843;52.020;5.670;2023-07-20T04:10:31;3.70;;;1.50;;
69623;SDS011;56843;52.020;5.670;2023-07-20T04:12:02;3.50;;;1.40;;
69623;SDS011;56843;52.020;5.670;2023-07-20T04:13:32;5.25;;;1.38;;
69623;SDS011;56843;52.020;5.670;2023-07-20T04:15:04;3.85;;;1.35;;
69623;SDS011;56843;52.020;5.670;2023-07-20T04:16:36;4.13;;;1.33;;
69623;SDS011;56843;52.020;5.670;2023-07-20T04:18:07;5.47;;;1.67;;
69623;SDS011;56843;52.020;5.670;2023-07-20T04:19:38;3.83;;;1.43;;
69623;SDS011;56843;52.020;5.670;2023-07-20T04:21:09;5.20;;;1.80;;
69623;SDS011;56843;52.020;5.670;2023-07-20T04:22:39;4.50;;;1.50;;
69623;SDS011;56843;52.020;5.670;2023-07-20T04:24:12;4.28;;;1.63;;
69623;SDS011;56843;52.020;5.670;2023-07-20T04:25:43;5.30;;;1.70;;
69623;SDS011;56843;52.020;5.670;2023-07-20T04:27:16;4.80;;;1.70;;
69623;SDS011;56843;52.020;5.670;2023-07-20T04:28:47;4.85;;;1.38;;
69623;SDS011;56843;52.020;5.670;2023-07-20T04:30:26;3.92;;;1.48;;
69623;SDS011;56843;52.020;5.670;2023-07-20T04:31:56;6.40;;;1.83;;
69623;SDS011;56843;52.020;5.670;2023-07-20T04:33:27;6.70;;;1.90;;
69623;SDS011;56843;52.020;5.670;2023-07-20T04:34:59;5.72;;;1.80;;
69623;SDS011;56843;52.020;5.670;2023-07-20T04:36:29;4.03;;;1.83;;
69623;SDS011;56843;52.020;5.670;2023-07-20T04:38:00;4.53;;;1.53;;
69623;SDS011;56843;52.020;5.670;2023-07-20T04:39:31;5.13;;;1.80;;
69623;SDS011;56843;52.020;5.670;2023-07-20T04:41:02;5.43;;;1.60;;
69623;SDS011;56843;52.020;5.670;2023-07-20T04:42:36;13.65;;;1.70;;
69623;SDS011;56843;52.020;5.670;2023-07-20T04:44:07;4.40;;;1.80;;
69623;SDS011;56843;52.020;5.670;2023-07-20T04:45:37;6.07;;;2.10;;
69623;SDS011;56843;52.020;5.670;2023-07-20T04:47:08;8.57;;;2.13;;
69623;SDS011;56843;52.020;5.670;2023-07-20T04:48:41;4.75;;;1.85;;
69623;SDS011;56843;52.020;5.670;2023-07-20T04:50:12;6.45;;;2.47;;
69623;SDS011;56843;52.020;5.670;2023-07-20T04:51:42;6.97;;;2.60;;
69623;SDS011;56843;52.020;5.670;2023-07-20T04:53:13;8.05;;;2.03;;
69623;SDS011;56843;52.020;5.670;2023-07-20T04:54:44;6.03;;;1.90;;
69623;SDS011;56843;52.020;5.670;2023-07-20T04:56:17;4.75;;;1.88;;
69623;SDS011;56843;52.020;5.670;2023-07-20T04:57:47;6.03;;;1.63;;
69623;SDS011;56843;52.020;5.670;2023-07-20T04:59:17;5.23;;;1.93;;
69623;SDS011;56843;52.020;5.670;2023-07-20T05:00:48;7.70;;;1.73;;
69623;SDS011;56843;52.020;5.670;2023-07-20T05:02:20;4.43;;;1.50;;
69623;SDS011;56843;52.020;5.670;2023-07-20T05:03:51;7.30;;;1.77;;
69623;SDS011;56843;52.020;5.670;2023-07-20T05:05:21;5.97;;;2.10;;
69623;SDS011;56843;52.020;5.670;2023-07-20T05:06:52;5.10;;;2.20;;
69623;SDS011;56843;52.020;5.670;2023-07-20T05:08:23;8.50;;;2.47;;
69623;SDS011;56843;52.020;5.670;2023-07-20T05:09:53;5.68;;;2.40;;
69623;SDS011;56843;52.020;5.670;2023-07-20T05:11:24;6.23;;;2.33;;
69623;SDS011;56843;52.020;5.670;2023-07-20T05:12:54;6.80;;;2.30;;
69623;SDS011;56843;52.020;5.670;2023-07-20T05:14:25;7.73;;;2.10;;
69623;SDS011;56843;52.020;5.670;2023-07-20T05:15:56;4.93;;;2.20;;
69623;SDS011;56843;52.020;5.670;2023-07-20T05:17:27;7.07;;;1.83;;
69623;SDS011;56843;52.020;5.670;2023-07-20T05:18:57;5.80;;;2.20;;
69623;SDS011;56843;52.020;5.670;2023-07-20T05:20:28;6.28;;;2.15;;
69623;SDS011;56843;52.020;5.670;2023-07-20T05:21:58;4.93;;;1.85;;
69623;SDS011;56843;52.020;5.670;2023-07-20T05:23:29;4.57;;;1.80;;
69623;SDS011;56843;52.020;5.670;2023-07-20T05:24:59;5.13;;;1.90;;
69623;SDS011;56843;52.020;5.670;2023-07-20T05:26:30;4.30;;;2.00;;
69623;SDS011;56843;52.020;5.670;2023-07-20T05:28:00;5.38;;;1.95;;
69623;SDS011;56843;52.020;5.670;2023-07-20T05:29:31;4.87;;;1.80;;
69623;SDS011;56843;52.020;5.670;2023-07-20T05:31:05;4.30;;;1.50;;
69623;SDS011;56843;52.020;5.670;2023-07-20T05:32:35;4.90;;;1.97;;
69623;SDS011;56843;52.020;5.670;2023-07-20T05:34:06;4.90;;;1.90;;
69623;SDS011;56843;52.020;5.670;2023-07-20T05:35:36;4.93;;;1.80;;
69623;SDS011;56843;52.020;5.670;2023-07-20T05:37:07;4.13;;;1.75;;
69623;SDS011;56843;52.020;5.670;2023-07-20T05:38:38;7.57;;;2.00;;
69623;SDS011;56843;52.020;5.670;2023-07-20T05:40:08;5.00;;;1.83;;
69623;SDS011;56843;52.020;5.670;2023-07-20T05:41:41;4.18;;;1.92;;
69623;SDS011;56843;52.020;5.670;2023-07-20T05:43:12;7.03;;;1.90;;
69623;SDS011;56843;52.020;5.670;2023-07-20T05:44:43;4.32;;;1.55;;
69623;SDS011;56843;52.020;5.670;2023-07-20T05:46:13;4.65;;;1.55;;
69623;SDS011;56843;52.020;5.670;2023-07-20T05:47:44;6.23;;;1.50;;
69623;SDS011;56843;52.020;5.670;2023-07-20T05:49:14;5.90;;;1.50;;
69623;SDS011;56843;52.020;5.670;2023-07-20T05:50:44;4.90;;;1.58;;
69623;SDS011;56843;52.020;5.670;2023-07-20T05:52:15;4.37;;;1.60;;
69623;SDS011;56843;52.020;5.670;2023-07-20T05:53:46;3.87;;;1.27;;
69623;SDS011;56843;52.020;5.670;2023-07-20T05:55:16;3.77;;;1.20;;
69623;SDS011;56843;52.020;5.670;2023-07-20T05:56:46;6.88;;;1.42;;
69623;SDS011;56843;52.020;5.670;2023-07-20T05:58:17;3.20;;;1.00;;
69623;SDS011;56843;52.020;5.670;2023-07-20T05:59:47;2.93;;;0.80;;
69623;SDS011;56843;52.020;5.670;2023-07-20T06:01:18;3.10;;;1.00;;
69623;SDS011;56843;52.020;5.670;2023-07-20T06:02:49;2.58;;;0.88;;
69623;SDS011;56843;52.020;5.670;2023-07-20T06:04:19;3.13;;;1.10;;
69623;SDS011;56843;52.020;5.670;2023-07-20T06:05:50;4.90;;;1.00;;
69623;SDS011;56843;52.020;5.670;2023-07-20T06:07:20;3.27;;;0.80;;
69623;SDS011;56843;52.020;5.670;2023-07-20T06:08:51;3.50;;;0.80;;
69623;SDS011;56843;52.020;5.670;2023-07-20T06:10:21;2.27;;;0.70;;
69623;SDS011;56843;52.020;5.670;2023-07-20T06:11:51;3.70;;;0.70;;
69623;SDS011;56843;52.020;5.670;2023-07-20T06:13:22;3.63;;;0.90;;
69623;SDS011;56843;52.020;5.670;2023-07-20T06:14:53;3.17;;;0.63;;
69623;SDS011;56843;52.020;5.670;2023-07-20T06:16:23;3.47;;;1.10;;
69623;SDS011;56843;52.020;5.670;2023-07-20T06:17:54;2.53;;;0.80;;
69623;SDS011;56843;52.020;5.670;2023-07-20T06:19:26;2.95;;;0.60;;
69623;SDS011;56843;52.020;5.670;2023-07-20T06:20:57;3.50;;;0.60;;
69623;SDS011;56843;52.020;5.670;2023-07-20T06:22:27;2.07;;;0.60;;
69623;SDS011;56843;52.020;5.670;2023-07-20T06:23:58;3.03;;;0.70;;
69623;SDS011;56843;52.020;5.670;2023-07-20T06:25:29;2.27;;;0.70;;
69623;SDS011;56843;52.020;5.670;2023-07-20T06:26:59;1.50;;;0.60;;
69623;SDS011;56843;52.020;5.670;2023-07-20T06:28:29;3.55;;;0.73;;
69623;SDS011;56843;52.020;5.670;2023-07-20T06:30:00;1.90;;;0.70;;
69623;SDS011;56843;52.020;5.670;2023-07-20T06:31:30;2.33;;;0.77;;
69623;SDS011;56843;52.020;5.670;2023-07-20T06:33:01;2.27;;;0.67;;
69623;SDS011;56843;52.020;5.670;2023-07-20T06:34:31;1.80;;;0.60;;
69623;SDS011;56843;52.020;5.670;2023-07-20T06:36:06;2.53;;;0.57;;
69623;SDS011;56843;52.020;5.670;2023-07-20T06:37:37;2.50;;;0.70;;
69623;SDS011;56843;52.020;5.670;2023-07-20T06:39:07;2.33;;;0.60;;
69623;SDS011;56843;52.020;5.670;2023-07-20T06:40:37;5.20;;;0.60;;
69623;SDS011;56843;52.020;5.670;2023-07-20T06:42:08;5.57;;;0.67;;
69623;SDS011;56843;52.020;5.670;2023-07-20T06:43:38;2.03;;;0.60;;
69623;SDS011;56843;52.020;5.670;2023-07-20T06:45:09;1.80;;;0.50;;
69623;SDS011;56843;52.020;5.670;2023-07-20T06:46:40;1.92;;;0.52;;
69623;SDS011;56843;52.020;5.670;2023-07-20T06:48:11;2.40;;;0.70;;
69623;SDS011;56843;52.020;5.670;2023-07-20T06:49:42;2.77;;;0.73;;
69623;SDS011;56843;52.020;5.670;2023-07-20T06:51:12;2.20;;;0.60;;
69623;SDS011;56843;52.020;5.670;2023-07-20T06:52:42;1.50;;;0.60;;
69623;SDS011;56843;52.020;5.670;2023-07-20T06:54:13;4.90;;;0.50;;
69623;SDS011;56843;52.020;5.670;2023-07-20T06:55:43;2.93;;;0.60;;
69623;SDS011;56843;52.020;5.670;2023-07-20T06:57:14;1.80;;;0.60;;
69623;SDS011;56843;52.020;5.670;2023-07-20T06:58:44;1.77;;;0.60;;
69623;SDS011;56843;52.020;5.670;2023-07-20T07:00:15;1.67;;;0.60;;
69623;SDS011;56843;52.020;5.670;2023-07-20T07:01:45;1.47;;;0.57;;
69623;SDS011;56843;52.020;5.670;2023-07-20T07:03:16;1.83;;;0.63;;
69623;SDS011;56843;52.020;5.670;2023-07-20T07:04:46;2.15;;;0.63;;
69623;SDS011;56843;52.020;5.670;2023-07-20T07:06:17;1.57;;;0.60;;
69623;SDS011;56843;52.020;5.670;2023-07-20T07:07:47;1.90;;;0.60;;
69623;SDS011;56843;52.020;5.670;2023-07-20T07:09:19;1.60;;;0.57;;
69623;SDS011;56843;52.020;5.670;2023-07-20T07:10:52;1.60;;;0.52;;
69623;SDS011;56843;52.020;5.670;2023-07-20T07:12:22;2.38;;;0.60;;
69623;SDS011;56843;52.020;5.670;2023-07-20T07:13:53;2.70;;;0.80;;
69623;SDS011;56843;52.020;5.670;2023-07-20T07:15:24;3.40;;;0.80;;
69623;SDS011;56843;52.020;5.670;2023-07-20T07:16:54;2.07;;;0.70;;
69623;SDS011;56843;52.020;5.670;2023-07-20T07:18:25;2.90;;;0.67;;
69623;SDS011;56843;52.020;5.670;2023-07-20T07:19:56;2.55;;;0.70;;
69623;SDS011;56843;52.020;5.670;2023-07-20T07:21:27;2.00;;;0.50;;
69623;SDS011;56843;52.020;5.670;2023-07-20T07:22:57;2.17;;;0.77;;
69623;SDS011;56843;52.020;5.670;2023-07-20T07:24:28;2.00;;;0.80;;
69623;SDS011;56843;52.020;5.670;2023-07-20T07:26:03;3.17;;;0.70;;
69623;SDS011;56843;52.020;5.670;2023-07-20T07:27:34;1.60;;;0.50;;
69623;SDS011;56843;52.020;5.670;2023-07-20T07:29:04;2.03;;;0.60;;
69623;SDS011;56843;52.020;5.670;2023-07-20T07:30:35;2.33;;;0.80;;
69623;SDS011;56843;52.020;5.670;2023-07-20T07:32:05;2.67;;;0.70;;
69623;SDS011;56843;52.020;5.670;2023-07-20T07:33:36;1.70;;;0.50;;
69623;SDS011;56843;52.020;5.670;2023-07-20T07:35:07;2.80;;;0.65;;
69623;SDS011;56843;52.020;5.670;2023-07-20T07:36:37;3.90;;;0.50;;
69623;SDS011;56843;52.020;5.670;2023-07-20T07:38:08;1.80;;;0.50;;
69623;SDS011;56843;52.020;5.670;2023-07-20T07:39:38;3.93;;;0.70;;
69623;SDS011;56843;52.020;5.670;2023-07-20T07:41:09;2.05;;;0.65;;
69623;SDS011;56843;52.020;5.670;2023-07-20T07:42:40;1.43;;;0.50;;
69623;SDS011;56843;52.020;5.670;2023-07-20T07:44:10;1.70;;;0.60;;
69623;SDS011;56843;52.020;5.670;2023-07-20T07:45:41;4.60;;;0.70;;
69623;SDS011;56843;52.020;5.670;2023-07-20T07:47:11;1.70;;;0.60;;
69623;SDS011;56843;52.020;5.670;2023-07-20T07:48:42;1.90;;;0.70;;
69623;SDS011;56843;52.020;5.670;2023-07-20T07:50:13;4.00;;;0.73;;
69623;SDS011;56843;52.020;5.670;2023-07-20T07:51:43;2.20;;;0.77;;
69623;SDS011;56843;52.020;5.670;2023-07-20T07:53:14;3.45;;;0.70;;
69623;SDS011;56843;52.020;5.670;2023-07-20T07:54:44;2.10;;;0.60;;
69623;SDS011;56843;52.020;5.670;2023-07-20T07:56:14;1.87;;;0.77;;
69623;SDS011;56843;52.020;5.670;2023-07-20T07:57:46;2.50;;;0.70;;
69623;SDS011;56843;52.020;5.670;2023-07-20T07:59:17;5.38;;;0.80;;
69623;SDS011;56843;52.020;5.670;2023-07-20T08:00:48;3.20;;;0.77;;
69623;SDS011;56843;52.020;5.670;2023-07-20T08:02:18;2.15;;;0.68;;
69623;SDS011;56843;52.020;5.670;2023-07-20T08:03:49;4.57;;;0.75;;
69623;SDS011;56843;52.020;5.670;2023-07-20T08:05:20;3.60;;;0.50;;
69623;SDS011;56843;52.020;5.670;2023-07-20T08:06:50;1.90;;;0.67;;
69623;SDS011;56843;52.020;5.670;2023-07-20T08:08:21;3.67;;;0.90;;
69623;SDS011;56843;52.020;5.670;2023-07-20T08:09:52;3.60;;;0.80;;
69623;SDS011;56843;52.020;5.670;2023-07-20T08:11:23;2.50;;;0.80;;
69623;SDS011;56843;52.020;5.670;2023-07-20T08:12:54;3.28;;;0.80;;
69623;SDS011;56843;52.020;5.670;2023-07-20T08:14:24;10.70;;;0.80;;
69623;SDS011;56843;52.020;5.670;2023-07-20T08:15:55;8.97;;;0.90;;
69623;SDS011;56843;52.020;5.670;2023-07-20T08:17:25;4.17;;;0.70;;
69623;SDS011;56843;52.020;5.670;2023-07-20T08:18:56;3.43;;;0.90;;
69623;SDS011;56843;52.020;5.670;2023-07-20T08:20:26;1.93;;;0.60;;
69623;SDS011;56843;52.020;5.670;2023-07-20T08:21:56;2.20;;;0.80;;
69623;SDS011;56843;52.020;5.670;2023-07-20T08:23:27;2.57;;;0.60;;
69623;SDS011;56843;52.020;5.670;2023-07-20T08:24:57;2.75;;;0.63;;
69623;SDS011;56843;52.020;5.670;2023-07-20T08:26:28;2.30;;;0.80;;
69623;SDS011;56843;52.020;5.670;2023-07-20T08:27:58;2.00;;;0.50;;
69623;SDS011;56843;52.020;5.670;2023-07-20T08:29:31;2.40;;;0.80;;
69623;SDS011;56843;52.020;5.670;2023-07-20T08:31:01;2.40;;;0.80;;
69623;SDS011;56843;52.020;5.670;2023-07-20T08:32:32;2.25;;;0.80;;
69623;SDS011;56843;52.020;5.670;2023-07-20T08:34:03;2.28;;;0.60;;
69623;SDS011;56843;52.020;5.670;2023-07-20T08:35:33;1.70;;;0.60;;
69623;SDS011;56843;52.020;5.670;2023-07-20T08:37:04;1.50;;;0.60;;
69623;SDS011;56843;52.020;5.670;2023-07-20T08:38:35;1.60;;;0.70;;
69623;SDS011;56843;52.020;5.670;2023-07-20T08:40:06;3.33;;;0.57;;
69623;SDS011;56843;52.020;5.670;2023-07-20T08:41:40;2.97;;;0.63;;
69623;SDS011;56843;52.020;5.670;2023-07-20T08:43:13;3.20;;;0.80;;
69623;SDS011;56843;52.020;5.670;2023-07-20T08:44:46;2.10;;;0.80;;
69623;SDS011;56843;52.020;5.670;2023-07-20T08:46:19;2.20;;;0.73;;
69623;SDS011;56843;52.020;5.670;2023-07-20T08:47:50;1.67;;;0.70;;
69623;SDS011;56843;52.020;5.670;2023-07-20T08:49:20;2.13;;;0.70;;
69623;SDS011;56843;52.020;5.670;2023-07-20T08:50:52;1.87;;;0.70;;
69623;SDS011;56843;52.020;5.670;2023-07-20T08:52:26;2.78;;;0.80;;
69623;SDS011;56843;52.020;5.670;2023-07-20T08:53:58;2.00;;;0.63;;
69623;SDS011;56843;52.020;5.670;2023-07-20T08:55:29;1.73;;;0.60;;
69623;SDS011;56843;52.020;5.670;2023-07-20T08:57:01;1.55;;;0.70;;
69623;SDS011;56843;52.020;5.670;2023-07-20T08:58:33;2.10;;;0.77;;
69623;SDS011;56843;52.020;5.670;2023-07-20T09:00:05;3.30;;;0.73;;
69623;SDS011;56843;52.020;5.670;2023-07-20T09:01:39;1.42;;;0.60;;
69623;SDS011;56843;52.020;5.670;2023-07-20T09:03:10;1.80;;;0.60;;
69623;SDS011;56843;52.020;5.670;2023-07-20T09:04:41;1.60;;;0.60;;
69623;SDS011;56843;52.020;5.670;2023-07-20T09:06:13;2.42;;;0.68;;
69623;SDS011;56843;52.020;5.670;2023-07-20T09:07:43;1.87;;;0.70;;
69623;SDS011;56843;52.020;5.670;2023-07-20T09:09:14;1.53;;;0.67;;
69623;SDS011;56843;52.020;5.670;2023-07-20T09:10:44;4.22;;;0.70;;
69623;SDS011;56843;52.020;5.670;2023-07-20T09:12:15;2.47;;;0.70;;
69623;SDS011;56843;52.020;5.670;2023-07-20T09:13:46;1.50;;;0.70;;
69623;SDS011;56843;52.020;5.670;2023-07-20T09:15:17;1.35;;;0.50;;
69623;SDS011;56843;52.020;5.670;2023-07-20T09:16:50;2.25;;;0.70;;
69623;SDS011;56843;52.020;5.670;2023-07-20T09:18:24;1.75;;;0.75;;